KSYN/SYN METAR and TAF weather

Enter ICAO airport designator
Station Type Date Time Source
KSYN METAR 2024/02/26 17:55 UTC NOAA

KSYN 261755Z AUTO 18019G25KT 10SM CLR 14/00 A2946 RMK AO2 T01381001 10138 20017


Station Type Date Time Source
KSYN Decoded METAR 2024/02/26 17:55 UTC NOAA

Stanton, Stanton Airfield, MN, United States (KSYN) 44-28-31N 093-00-58W
Feb 26, 2024 - 12:55 PM EST / 2024.02.26 1755 UTC
Wind: from the S (180 degrees) at 22 MPH (19 KT) gusting to 29 MPH (25 KT):0
Visibility: 10 mile(s):0
Sky conditions: clear
Temperature: 56.8 F (13.8 C)
Dew Point: 31.8 F (-0.1 C)
Relative Humidity: 38%
Pressure (altimeter): 29.46 in. Hg (997 hPa)
ob: KSYN 261755Z AUTO 18019G25KT 10SM CLR 14/00 A2946 RMK AO2 T01381001 10138 20017
cycle: 18

Station Type Date Time Source
KSYN TAF UTC NOAA

Error!

Example: see airport list